createdAt,value
2018-07-04T00:00:49.501Z,61.9
2018-07-04T00:01:48.928Z,61.8
2018-07-04T00:02:48.534Z,60.5
2018-07-04T00:03:47.755Z,60.4
2018-07-04T00:04:47.178Z,59.7
2018-07-04T00:05:46.501Z,59.8
2018-07-04T00:06:45.439Z,58.6
2018-07-04T00:07:44.880Z,59.1
2018-07-04T00:08:44.210Z,59.6
2018-07-04T00:09:43.634Z,59.2
2018-07-04T00:10:42.760Z,58.5
2018-07-04T00:11:42.264Z,59.7
2018-07-04T00:12:41.698Z,58.5
2018-07-04T00:13:41.024Z,58.2
2018-07-04T00:14:40.358Z,58.6
2018-07-04T00:15:39.691Z,59.2
2018-07-04T00:16:38.812Z,59.3
2018-07-04T00:17:38.141Z,59.7
2018-07-04T00:18:37.648Z,60
2018-07-04T00:19:36.978Z,60.5
2018-07-04T00:20:36.245Z,60
2018-07-04T00:21:35.598Z,61.1
2018-07-04T00:22:35.028Z,60.6
2018-07-04T00:23:34.245Z,60.9
2018-07-04T00:24:33.248Z,61.4
2018-07-04T00:25:33.001Z,61.1
2018-07-04T00:26:32.041Z,61.4
2018-07-04T00:27:31.148Z,60.6
2018-07-04T00:28:30.576Z,59.6
2018-07-04T00:29:29.686Z,59.2
2018-07-04T00:30:29.113Z,58.5
2018-07-04T00:31:28.432Z,58.9
2018-07-04T00:32:28.149Z,58.8
2018-07-04T00:33:27.477Z,58.9
2018-07-04T00:34:26.804Z,60.2
2018-07-04T00:35:26.135Z,59
2018-07-04T00:36:25.062Z,58.6
2018-07-04T00:37:24.491Z,58.9
2018-07-04T00:38:23.992Z,58.6
2018-07-04T00:39:22.826Z,58.5
2018-07-04T00:40:22.251Z,58.5
2018-07-04T00:41:21.580Z,59.1
2018-07-04T00:42:21.297Z,59.1
2018-07-04T00:43:20.417Z,58.7
2018-07-04T00:44:19.781Z,58.8
2018-07-04T00:45:19.213Z,58.9
2018-07-04T00:45:49.450Z,58.9
2018-07-04T00:47:17.559Z,59.2
2018-07-04T00:48:17.005Z,59.1
2018-07-04T00:49:16.449Z,59.2
2018-07-04T00:50:15.376Z,59.3
2018-07-04T00:51:14.702Z,59.6
2018-07-04T00:52:14.066Z,59.3
2018-07-04T00:53:13.501Z,59.4
2018-07-04T00:54:12.927Z,59.3
2018-07-04T00:55:12.143Z,59
2018-07-04T00:56:11.359Z,59
2018-07-04T00:57:10.788Z,58.6
2018-07-04T00:58:10.009Z,58.7
2018-07-04T00:59:09.327Z,58.7
2018-07-04T01:00:08.782Z,58.7
2018-07-04T01:01:08.000Z,58.7
2018-07-04T01:02:07.216Z,58.5
2018-07-04T01:03:06.554Z,58.4
2018-07-04T01:04:05.990Z,58.9
2018-07-04T01:04:36.233Z,58.9
2018-07-04T01:07:03.926Z,57.9
2018-07-04T01:08:03.354Z,58
2018-07-04T01:09:02.571Z,58.1
2018-07-04T01:10:01.893Z,58.2
2018-07-04T01:11:01.112Z,57.6
2018-07-04T01:12:00.329Z,57.7
2018-07-04T01:12:59.762Z,57.8
2018-07-04T01:13:59.099Z,57.9
2018-07-04T01:14:58.540Z,58
2018-07-04T01:15:57.755Z,58.4
2018-07-04T01:16:56.971Z,58.2
2018-07-04T01:17:56.415Z,58.2
2018-07-04T01:18:55.734Z,58.3
2018-07-04T01:19:54.946Z,59.1
2018-07-04T01:20:54.266Z,58.8
2018-07-04T01:21:53.596Z,58.7
2018-07-04T01:22:53.033Z,58.9
2018-07-04T01:23:52.355Z,59.2
2018-07-04T01:24:51.683Z,59.5
2018-07-04T01:25:50.912Z,59.5
2018-07-04T01:26:50.131Z,59.6
2018-07-04T01:27:49.566Z,59.3
2018-07-04T01:28:48.805Z,59.8
2018-07-04T01:29:48.135Z,60.2
2018-07-04T01:30:47.356Z,60
2018-07-04T01:31:17.599Z,60
2018-07-04T01:32:46.116Z,60.1
2018-07-04T01:33:45.436Z,60.3
2018-07-04T01:34:44.554Z,60.7
2018-07-04T01:35:43.770Z,61
2018-07-04T01:36:43.489Z,61.5
2018-07-04T01:37:42.810Z,61.6
2018-07-04T01:38:41.916Z,61.7
2018-07-04T01:39:41.352Z,61.5
2018-07-04T01:40:40.679Z,62
2018-07-04T01:41:11.315Z,62
2018-07-04T01:41:41.557Z,62.3
2018-07-04T01:42:11.984Z,62.3
2018-07-04T01:43:38.600Z,62.5
2018-07-04T01:44:37.926Z,62.5
2018-07-04T01:45:36.848Z,62.4
2018-07-04T01:46:36.276Z,62.6
2018-07-04T01:47:35.595Z,62.7
2018-07-04T01:48:34.813Z,62.7
2018-07-04T01:49:34.425Z,62.6
2018-07-04T01:50:33.751Z,62.8
2018-07-04T01:51:32.670Z,62.9
2018-07-04T01:52:32.389Z,63.4
2018-07-04T01:53:31.616Z,63.4
2018-07-04T01:54:31.051Z,63.4
2018-07-04T01:55:30.067Z,63.8
2018-07-04T01:56:29.284Z,63.6
2018-07-04T01:57:28.792Z,64.4
2018-07-04T01:58:28.049Z,64
2018-07-04T01:59:27.377Z,64.8
2018-07-04T02:00:26.708Z,65.1
2018-07-04T02:02:25.214Z,64.8
2018-07-04T02:03:24.450Z,65.3
2018-07-04T02:04:23.706Z,65.6
2018-07-04T02:05:23.049Z,65.3
2018-07-04T02:06:22.272Z,65.1
2018-07-04T02:07:21.594Z,65.7
2018-07-04T02:08:21.309Z,65.2
2018-07-04T02:09:20.234Z,65
2018-07-04T02:10:19.566Z,65.7
2018-07-04T02:11:18.998Z,65.9
2018-07-04T02:12:18.436Z,65.8
2018-07-04T02:13:17.753Z,65.7
2018-07-04T02:14:16.995Z,66
2018-07-04T02:16:15.706Z,66.5
2018-07-04T02:17:14.633Z,66.8
2018-07-04T02:18:13.953Z,66.4
2018-07-04T02:19:13.276Z,66.4
2018-07-04T02:20:12.603Z,66.4
2018-07-04T02:21:11.933Z,66.5
2018-07-04T02:22:11.357Z,66.1
2018-07-04T02:22:41.885Z,66.1
2018-07-04T02:23:12.305Z,66.4
2018-07-04T02:23:42.942Z,66.4
2018-07-04T02:24:13.575Z,66.4
2018-07-04T02:24:43.998Z,66.4
2018-07-04T02:25:14.526Z,66.7
2018-07-04T02:25:45.175Z,66.7
2018-07-04T02:27:08.140Z,66.8
2018-07-04T02:28:07.359Z,67.3
2018-07-04T02:29:06.575Z,67.2
2018-07-04T02:30:05.786Z,67.5
2018-07-04T02:31:05.015Z,67.1
2018-07-04T02:32:04.257Z,67.2
2018-07-04T02:33:03.593Z,67.2
2018-07-04T02:34:02.913Z,67.3
2018-07-04T02:35:02.252Z,67.1
2018-07-04T02:36:01.472Z,66.8
2018-07-04T02:37:00.705Z,66.6
2018-07-04T02:38:00.015Z,67.1
2018-07-04T02:38:59.480Z,67.2
2018-07-04T02:39:58.711Z,67.3
2018-07-04T02:40:58.057Z,67.6
2018-07-04T02:41:57.381Z,67.7
2018-07-04T02:42:56.814Z,68
2018-07-04T02:43:27.346Z,68
2018-07-04T02:44:55.590Z,68.3
2018-07-04T02:45:54.577Z,68.4
2018-07-04T02:46:54.036Z,68
2018-07-04T02:47:53.277Z,67.9
2018-07-04T02:48:52.602Z,67.7
2018-07-04T02:49:51.821Z,68.1
2018-07-04T02:50:51.265Z,68.3
2018-07-04T02:51:49.997Z,68.4
2018-07-04T02:52:49.453Z,68.1
2018-07-04T02:53:48.693Z,68.4
2018-07-04T02:54:48.032Z,68.6
2018-07-04T02:55:47.376Z,68.5
2018-07-04T02:56:46.716Z,68.3
2018-07-04T02:57:45.957Z,68
2018-07-04T02:58:45.294Z,67.4
2018-07-04T02:59:44.641Z,67.5
2018-07-04T03:00:44.015Z,67.2
2018-07-04T03:01:43.358Z,67
2018-07-04T03:02:42.475Z,67.5
2018-07-04T03:03:41.803Z,67
2018-07-04T03:04:41.258Z,66.6
2018-07-04T03:05:40.597Z,66.5
2018-07-04T03:06:39.745Z,66.3
2018-07-04T03:07:39.082Z,66.5
2018-07-04T03:08:38.436Z,66.5
2018-07-04T03:09:37.776Z,66.2
2018-07-04T03:10:36.632Z,66.2
2018-07-04T03:11:35.978Z,66.1
2018-07-04T03:12:35.207Z,65.9
2018-07-04T03:13:35.045Z,66.3
2018-07-04T03:14:33.878Z,66.2
2018-07-04T03:15:33.202Z,66.1
2018-07-04T03:16:32.444Z,65.8
2018-07-04T03:17:31.783Z,66.7
2018-07-04T03:18:31.153Z,65.9
2018-07-04T03:19:30.594Z,65.9
2018-07-04T03:20:29.816Z,66.2
2018-07-04T03:21:00.077Z,66.2
2018-07-04T03:21:30.736Z,66.2
2018-07-04T03:22:28.556Z,66.4
2018-07-04T03:23:27.693Z,66.2
2018-07-04T03:25:26.021Z,66.5
2018-07-04T03:26:25.353Z,66.9
2018-07-04T03:27:24.688Z,66.9
2018-07-04T03:28:23.908Z,66.6
2018-07-04T03:29:23.237Z,66.7
2018-07-04T03:31:21.861Z,66.2
2018-07-04T03:31:52.027Z,66.2
2018-07-04T03:32:22.688Z,66.5
2018-07-04T03:33:20.520Z,67.5
2018-07-04T03:34:19.651Z,67.5
2018-07-04T03:35:18.884Z,67.5
2018-07-04T03:36:18.320Z,67.3
2018-07-04T03:37:17.946Z,67.8
2018-07-04T03:38:16.782Z,67.9
2018-07-04T03:39:16.228Z,67.6
2018-07-04T03:40:15.560Z,68.2
2018-07-04T03:41:15.017Z,68.1
2018-07-04T03:42:14.347Z,67.7
2018-07-04T03:43:13.277Z,67.4
2018-07-04T03:44:12.604Z,68.6
2018-07-04T03:45:12.036Z,68.2
2018-07-04T03:46:11.481Z,69.2
2018-07-04T03:47:10.418Z,69.4
2018-07-04T03:48:09.745Z,69.4
2018-07-04T03:49:09.181Z,69.7
2018-07-04T03:50:08.413Z,70.1
2018-07-04T03:51:07.757Z,69.4
2018-07-04T03:52:06.701Z,70.7
2018-07-04T03:53:06.365Z,70.5
2018-07-04T03:54:05.375Z,70.6
2018-07-04T03:55:04.705Z,71
2018-07-04T03:56:04.043Z,70.6
2018-07-04T03:57:03.493Z,70.3
2018-07-04T03:58:02.545Z,70.4
2018-07-04T03:59:01.935Z,70.3
2018-07-04T04:00:01.273Z,70.1
2018-07-04T04:00:31.536Z,70.1
2018-07-04T04:01:02.192Z,71.3
2018-07-04T04:01:32.726Z,71.3
2018-07-04T04:02:03.271Z,71.2
2018-07-04T04:02:33.527Z,71.2
2018-07-04T04:03:03.782Z,71.3
2018-07-04T04:03:34.425Z,71.3
2018-07-04T04:04:04.964Z,71.1
2018-07-04T04:04:35.288Z,71.1
2018-07-04T04:05:56.776Z,71
2018-07-04T04:06:56.105Z,70.6
2018-07-04T04:07:55.540Z,70.6
2018-07-04T04:08:54.659Z,71.6
2018-07-04T04:09:53.785Z,71.2
2018-07-04T04:10:53.231Z,71
2018-07-04T04:11:52.667Z,71
2018-07-04T04:12:22.921Z,71
2018-07-04T04:12:53.059Z,71.2
2018-07-04T04:13:23.700Z,71.2
2018-07-04T04:13:54.349Z,71.1
2018-07-04T04:14:25.009Z,71.1
2018-07-04T04:15:49.399Z,70.8
2018-07-04T04:16:48.725Z,70.6
2018-07-04T04:17:48.057Z,70.5
2018-07-04T04:18:47.387Z,70.7
2018-07-04T04:19:46.647Z,70.7
2018-07-04T04:20:46.178Z,70.7
2018-07-04T04:21:45.114Z,71.1
2018-07-04T04:22:44.452Z,71.3
2018-07-04T04:23:43.685Z,71.2
2018-07-04T04:24:43.019Z,71.1
2018-07-04T04:25:42.249Z,71.3
2018-07-04T04:26:41.689Z,71.7
2018-07-04T04:27:41.019Z,71.4
2018-07-04T04:28:40.236Z,71.3
2018-07-04T04:29:39.164Z,71
2018-07-04T04:30:38.593Z,71
2018-07-04T04:31:37.813Z,71.2
2018-07-04T04:32:37.245Z,70.9
2018-07-04T04:33:36.587Z,70.8
2018-07-04T04:34:35.802Z,70.7
2018-07-04T04:35:35.233Z,69.7
2018-07-04T04:36:34.169Z,69.7
2018-07-04T04:37:33.501Z,69.1
2018-07-04T04:38:32.823Z,68.7
2018-07-04T04:39:31.940Z,68.9
2018-07-04T04:40:31.370Z,68.8
2018-07-04T04:41:30.692Z,68.2
2018-07-04T04:42:30.296Z,68.4
2018-07-04T04:43:29.117Z,68.1
2018-07-04T04:43:59.530Z,68.1
2018-07-04T04:45:27.990Z,68
2018-07-04T04:47:26.492Z,67.3
2018-07-04T04:48:25.430Z,67.2
2018-07-04T04:49:24.766Z,67
2018-07-04T04:50:23.899Z,66.9
2018-07-04T04:51:23.622Z,66.9
2018-07-04T04:52:22.449Z,67.1
2018-07-04T04:53:21.785Z,66.5
2018-07-04T04:53:52.211Z,66.5
2018-07-04T04:55:20.723Z,66.2
2018-07-04T04:56:19.554Z,66.1
2018-07-04T04:57:18.995Z,66.1
2018-07-04T04:58:18.322Z,65.9
2018-07-04T04:59:17.651Z,66.1
2018-07-04T05:00:17.002Z,66
2018-07-04T05:01:15.827Z,66
2018-07-04T05:02:15.282Z,66.1
2018-07-04T05:03:14.730Z,65.9
2018-07-04T05:04:14.059Z,66.1
2018-07-04T05:05:13.389Z,66.2
2018-07-04T05:07:11.619Z,65.5
2018-07-04T05:08:10.838Z,65.4
2018-07-04T05:09:10.270Z,65.4
2018-07-04T05:10:09.595Z,65.4
2018-07-04T05:11:08.812Z,65.4
2018-07-04T05:12:08.143Z,65.1
2018-07-04T05:13:07.590Z,64.9
2018-07-04T05:15:06.311Z,64.8
2018-07-04T05:16:05.254Z,64.8
2018-07-04T05:17:04.493Z,64.5
2018-07-04T05:18:03.832Z,64
2018-07-04T05:19:03.055Z,64
2018-07-04T05:21:01.851Z,63.7
2018-07-04T05:22:01.040Z,64.2
2018-07-04T05:23:59.338Z,64.1
2018-07-04T05:24:59.064Z,64.1
2018-07-04T05:25:58.396Z,64.4
2018-07-04T05:26:57.721Z,64.6
2018-07-04T05:27:56.650Z,64.4
2018-07-04T05:28:56.090Z,63.7
2018-07-04T05:29:55.198Z,63.8
2018-07-04T05:31:53.694Z,61.8
2018-07-04T05:32:53.022Z,62.1
2018-07-04T05:34:51.632Z,61.2
2018-07-04T05:35:50.974Z,60.4
2018-07-04T05:36:50.084Z,60.3
2018-07-04T05:37:49.704Z,59.8
2018-07-04T05:38:49.029Z,59.3
2018-07-04T05:39:19.468Z,59.3
2018-07-04T05:39:49.708Z,58.9
2018-07-04T05:40:20.248Z,58.9
2018-07-04T05:40:50.951Z,58.2
2018-07-04T05:41:21.372Z,58.2
2018-07-04T05:42:46.261Z,58.4
2018-07-04T05:43:45.203Z,58.9
2018-07-04T05:44:44.354Z,58.5
2018-07-04T05:45:43.796Z,57.9
2018-07-04T05:46:43.370Z,57.3
2018-07-04T05:47:42.621Z,56.9
2018-07-04T05:48:41.711Z,56.8
2018-07-04T05:49:12.136Z,56.8
2018-07-04T05:49:42.896Z,57.5
2018-07-04T05:50:13.158Z,57.5
2018-07-04T05:50:43.808Z,57.6
2018-07-04T05:51:14.271Z,57.6
2018-07-04T05:51:44.590Z,58
2018-07-04T05:52:14.727Z,58
2018-07-04T05:52:45.369Z,58.4
2018-07-04T05:53:15.914Z,58.4
2018-07-04T05:54:37.779Z,58
2018-07-04T05:55:37.218Z,58
2018-07-04T05:56:36.708Z,58.2
2018-07-04T05:57:35.536Z,58.5
2018-07-04T05:58:34.976Z,58.8
2018-07-04T05:59:34.305Z,58.5
2018-07-04T06:00:33.638Z,59
2018-07-04T06:01:32.960Z,58.3
2018-07-04T06:02:32.081Z,58.1
2018-07-04T06:03:31.528Z,58.1
2018-07-04T06:04:30.758Z,58
2018-07-04T06:05:30.195Z,58.1
2018-07-04T06:06:29.314Z,58.3
2018-07-04T06:07:28.537Z,58.2
2018-07-04T06:08:27.973Z,58.3
2018-07-04T06:09:27.090Z,58
2018-07-04T06:10:26.411Z,57.4
2018-07-04T06:11:25.744Z,57.6
2018-07-04T06:12:25.075Z,57.7
2018-07-04T06:13:24.406Z,57.9
2018-07-04T06:14:23.743Z,57.6
2018-07-04T06:15:23.064Z,56.7
2018-07-04T06:16:22.533Z,57
2018-07-04T06:17:21.650Z,56.9
2018-07-04T06:18:21.126Z,57.2
2018-07-04T06:19:20.467Z,57.1
2018-07-04T06:20:19.795Z,56.5
2018-07-04T06:20:49.943Z,56.5
2018-07-04T06:21:20.686Z,56.3
2018-07-04T06:21:51.247Z,56.3
2018-07-04T06:22:21.778Z,56.5
2018-07-04T06:22:52.329Z,56.5
2018-07-04T06:24:17.027Z,56.2
2018-07-04T06:25:16.499Z,55.8
2018-07-04T06:26:15.363Z,56.2
2018-07-04T06:27:14.712Z,56.2
2018-07-04T06:28:14.154Z,56.7
2018-07-04T06:29:13.367Z,55.8
2018-07-04T06:30:12.706Z,55.7
2018-07-04T06:31:12.027Z,55.7
2018-07-04T06:31:42.277Z,55.7
2018-07-04T06:32:12.525Z,55.4
2018-07-04T06:32:42.759Z,55.4
2018-07-04T06:33:13.013Z,55.4
2018-07-04T06:33:43.268Z,55.4
2018-07-04T06:34:13.519Z,55.8
2018-07-04T06:34:44.067Z,55.8
2018-07-04T06:35:14.209Z,54.7
2018-07-04T06:36:09.009Z,53.2
2018-07-04T06:37:08.343Z,54.3
2018-07-04T06:38:07.677Z,53.7
2018-07-04T06:39:07.078Z,52.8
2018-07-04T06:40:06.036Z,53.3
2018-07-04T06:41:05.276Z,52.8
2018-07-04T06:42:04.610Z,53.5
2018-07-04T06:43:04.341Z,52.2
2018-07-04T06:44:03.277Z,52.2
2018-07-04T06:45:03.001Z,52
2018-07-04T06:46:02.120Z,51.1
2018-07-04T06:47:01.341Z,51.3
2018-07-04T06:48:00.852Z,50.5
2018-07-04T06:48:59.993Z,50.8
2018-07-04T06:49:59.172Z,49.2
2018-07-04T06:50:58.510Z,49.2
2018-07-04T06:51:57.842Z,49.5
2018-07-04T06:52:57.684Z,49
2018-07-04T06:53:56.906Z,48.5
2018-07-04T06:54:55.854Z,48
2018-07-04T06:55:55.091Z,47.8
2018-07-04T06:56:54.821Z,47.6
2018-07-04T06:57:53.938Z,47.4
2018-07-04T06:58:53.301Z,47.7
2018-07-04T06:59:52.754Z,47.1
2018-07-04T07:00:52.189Z,46.9
2018-07-04T07:01:51.592Z,46.9
2018-07-04T07:02:50.816Z,45.9
2018-07-04T07:03:50.144Z,45.6
2018-07-04T07:04:49.626Z,45.7
2018-07-04T07:05:49.061Z,45.5
2018-07-04T07:06:48.181Z,46
2018-07-04T07:07:47.619Z,44.5
2018-07-04T07:08:46.953Z,43.5
2018-07-04T07:09:46.398Z,42.9
2018-07-04T07:10:45.730Z,42.9
2018-07-04T07:11:45.071Z,42.6
2018-07-04T07:12:44.396Z,42.2
2018-07-04T07:13:43.730Z,41.7
2018-07-04T07:14:42.949Z,41.3
2018-07-04T07:15:42.279Z,40.4
2018-07-04T07:16:41.616Z,39.9
2018-07-04T07:17:40.949Z,40.1
2018-07-04T07:18:40.277Z,39.8
2018-07-04T07:19:10.810Z,39.8
2018-07-04T07:19:41.450Z,38.8
2018-07-04T07:20:39.164Z,39.8
2018-07-04T07:21:38.603Z,39.3
2018-07-04T07:22:38.045Z,39.7
2018-07-04T07:23:37.380Z,38.6
2018-07-04T07:24:36.708Z,39.6
2018-07-04T07:25:36.152Z,38.3
2018-07-04T07:26:35.486Z,38.6
2018-07-04T07:27:34.942Z,38.6
2018-07-04T07:28:33.947Z,38.1
2018-07-04T07:29:04.186Z,38.1
2018-07-04T07:29:34.431Z,39.1
2018-07-04T07:30:04.967Z,39.1
2018-07-04T07:30:35.404Z,38.2
2018-07-04T07:31:05.936Z,38.2
2018-07-04T07:32:31.343Z,37.8
2018-07-04T07:33:31.023Z,37.4
2018-07-04T07:34:30.359Z,35.4
2018-07-04T07:35:29.583Z,35.9
2018-07-04T07:36:29.093Z,36.9
2018-07-04T07:37:28.312Z,36.1
2018-07-04T07:38:27.732Z,36.9
2018-07-04T07:39:26.949Z,36.4
2018-07-04T07:40:26.282Z,36.7
2018-07-04T07:41:26.230Z,36.4
2018-07-04T07:42:25.453Z,34.9
2018-07-04T07:43:24.689Z,33.8
2018-07-04T07:44:24.028Z,33.8
2018-07-04T07:45:23.642Z,35
2018-07-04T07:46:22.971Z,33.1
2018-07-04T07:47:22.411Z,33.6
2018-07-04T07:48:21.625Z,33.9
2018-07-04T07:49:20.949Z,33
2018-07-04T07:50:20.667Z,33.2
2018-07-04T07:51:19.501Z,33.7
2018-07-04T07:52:19.437Z,33.8
2018-07-04T07:53:18.869Z,34
2018-07-04T07:54:18.565Z,34.6
2018-07-04T07:55:17.385Z,34.8
2018-07-04T07:56:16.822Z,35
2018-07-04T07:57:16.301Z,34.4
2018-07-04T07:58:15.516Z,34.1
2018-07-04T07:59:14.948Z,34.6
2018-07-04T08:00:14.288Z,32.7
2018-07-04T08:00:44.719Z,32.7
2018-07-04T08:02:13.145Z,31
2018-07-04T08:03:12.477Z,31.6
2018-07-04T08:04:11.813Z,32.3
2018-07-04T08:05:11.138Z,32.4
2018-07-04T08:07:10.461Z,32.3
2018-07-04T08:08:09.799Z,31.3
2018-07-04T08:09:09.136Z,31.2
2018-07-04T08:10:08.255Z,31.4
2018-07-04T08:10:38.506Z,31.4
2018-07-04T08:11:09.147Z,31.6
2018-07-04T08:11:39.794Z,31.6
2018-07-04T08:12:10.335Z,31.3
2018-07-04T08:12:41.076Z,31.3
2018-07-04T08:13:11.100Z,31.6
2018-07-04T08:13:41.653Z,31.6
2018-07-04T08:16:04.931Z,31.6
2018-07-04T08:17:04.266Z,32
2018-07-04T08:18:03.886Z,32.5
2018-07-04T08:19:03.214Z,31.7
2018-07-04T08:20:02.649Z,31.6
2018-07-04T08:21:01.982Z,31.6
2018-07-04T08:23:00.778Z,31.5
2018-07-04T08:23:31.329Z,31.5
2018-07-04T08:24:59.955Z,31.3
2018-07-04T08:25:59.180Z,31.3
2018-07-04T08:26:58.799Z,31.3
2018-07-04T08:27:58.132Z,29.9
2018-07-04T08:28:57.352Z,31.2
2018-07-04T08:29:56.784Z,31
2018-07-04T08:30:56.509Z,31.2
2018-07-04T08:31:55.768Z,31.8
2018-07-04T08:32:55.049Z,30
2018-07-04T08:33:54.780Z,31.6
2018-07-04T08:34:54.396Z,30.3
2018-07-04T08:35:53.835Z,31.6
2018-07-04T08:36:53.054Z,31.9
2018-07-04T08:37:52.505Z,32.3
2018-07-04T08:38:51.951Z,32.1
2018-07-04T08:39:51.353Z,31.7
2018-07-04T08:40:50.690Z,31.8
2018-07-04T08:41:50.021Z,30.9
2018-07-04T08:42:49.763Z,31.3
2018-07-04T08:43:48.974Z,31.6
2018-07-04T08:44:48.993Z,31.5
2018-07-04T08:45:47.849Z,30.8
2018-07-04T08:46:47.576Z,31.1
2018-07-04T08:47:46.907Z,28.9
2018-07-04T08:48:46.136Z,28.9
2018-07-04T08:49:45.867Z,27.9
2018-07-04T08:50:45.309Z,28
2018-07-04T08:51:44.836Z,28.4
2018-07-04T08:52:44.135Z,27.3
2018-07-04T08:53:43.715Z,27
2018-07-04T08:54:43.052Z,27.4
2018-07-04T08:55:42.283Z,27.7
2018-07-04T08:56:42.024Z,27.6
2018-07-04T08:57:41.741Z,27.6
2018-07-04T08:58:41.262Z,27.1
2018-07-04T08:59:40.412Z,26.7
2018-07-04T09:00:39.848Z,27.3
2018-07-04T09:01:39.173Z,27.1
2018-07-04T09:02:38.793Z,24.7
2018-07-04T09:03:38.410Z,24.8
2018-07-04T09:04:37.635Z,25.4
2018-07-04T09:05:37.496Z,24.8
2018-07-04T09:06:36.584Z,24.9
2018-07-04T09:07:35.914Z,25.2
2018-07-04T09:08:35.874Z,24.2
2018-07-04T09:09:34.991Z,25.8
2018-07-04T09:10:05.651Z,25.8
2018-07-04T09:10:36.177Z,24.6
2018-07-04T09:11:06.424Z,24.6
2018-07-04T09:12:33.221Z,23.9
2018-07-04T09:13:33.067Z,23.5
2018-07-04T09:14:32.685Z,24.5
2018-07-04T09:15:31.688Z,24
2018-07-04T09:16:31.206Z,23.9
2018-07-04T09:17:31.044Z,24.9
2018-07-04T09:18:30.383Z,24.4
2018-07-04T09:19:29.830Z,24.1
2018-07-04T09:20:29.560Z,24.9
2018-07-04T09:21:00.110Z,24.9
2018-07-04T09:21:30.863Z,25.2
2018-07-04T09:22:01.500Z,25.2
2018-07-04T09:23:27.902Z,24.2
2018-07-04T09:24:27.309Z,23.8
2018-07-04T09:25:26.730Z,24
2018-07-04T09:26:26.612Z,24.1
2018-07-04T09:27:25.950Z,24.9
2018-07-04T09:28:25.173Z,25
2018-07-04T09:29:24.700Z,24.1
2018-07-04T09:30:24.443Z,24.4
2018-07-04T09:31:23.765Z,25.2
2018-07-04T09:32:23.391Z,23.9
2018-07-04T09:33:22.519Z,24.2
2018-07-04T09:34:22.244Z,23.5
2018-07-04T09:36:21.467Z,23.1
2018-07-04T09:37:20.685Z,23
2018-07-04T09:38:20.459Z,23.1
2018-07-04T09:39:20.030Z,23
2018-07-04T09:40:19.146Z,23.5
2018-07-04T09:41:18.988Z,23.8
2018-07-04T09:42:18.319Z,22.6
2018-07-04T09:43:18.039Z,22.3
2018-07-04T09:44:17.671Z,22.4
2018-07-04T09:45:17.010Z,22.4
2018-07-04T09:46:16.343Z,22.2
2018-07-04T09:47:15.773Z,21.1
2018-07-04T09:48:15.723Z,20.8
2018-07-04T09:49:15.047Z,20
2018-07-04T09:50:14.177Z,19.8
2018-07-04T09:51:14.006Z,20.2
2018-07-04T09:51:44.547Z,20.2
2018-07-04T09:52:15.076Z,20.7
2018-07-04T09:53:13.036Z,19.8
2018-07-04T09:53:43.462Z,19.8
2018-07-04T09:54:14.107Z,20.3
2018-07-04T09:54:44.649Z,20.3
2018-07-04T09:55:15.229Z,20.4
2018-07-04T09:55:45.874Z,20.4
2018-07-04T09:57:10.980Z,21
2018-07-04T09:58:10.924Z,21
2018-07-04T09:59:10.379Z,21.6
2018-07-04T10:00:09.598Z,21.5
2018-07-04T10:01:09.328Z,20.8
2018-07-04T10:02:08.654Z,21.5
2018-07-04T10:03:08.482Z,21.2
2018-07-04T10:03:38.907Z,21.2
2018-07-04T10:04:09.449Z,21.1
2018-07-04T10:04:39.984Z,21.1
2018-07-04T10:05:10.746Z,22
2018-07-04T10:05:41.002Z,22
2018-07-04T10:06:11.482Z,21.2
2018-07-04T10:06:41.735Z,21.2
2018-07-04T10:08:05.723Z,22.1
2018-07-04T10:09:05.557Z,22.2
2018-07-04T10:10:05.390Z,21.9
2018-07-04T10:11:04.512Z,20.6
2018-07-04T10:12:04.279Z,22
2018-07-04T10:13:04.002Z,21.6
2018-07-04T10:14:03.008Z,21
2018-07-04T10:15:02.849Z,22
2018-07-04T10:16:02.126Z,22.9
2018-07-04T10:17:01.748Z,21.2
2018-07-04T10:18:01.468Z,20.6
2018-07-04T10:20:00.387Z,21.4
2018-07-04T10:21:00.114Z,21.9
2018-07-04T10:21:59.945Z,22.2
2018-07-04T10:22:59.279Z,20.8
2018-07-04T10:23:58.497Z,20.8
2018-07-04T10:24:58.440Z,21.2
2018-07-04T10:25:57.664Z,20.7
2018-07-04T10:27:56.987Z,21
2018-07-04T10:28:56.715Z,20.8
2018-07-04T10:29:56.041Z,21.3
2018-07-04T10:30:55.519Z,20.4
2018-07-04T10:31:55.463Z,20.5
2018-07-04T10:32:54.684Z,21.1
2018-07-04T10:33:54.415Z,21.1
2018-07-04T10:34:53.933Z,21.3
2018-07-04T10:35:53.772Z,20.8
2018-07-04T10:36:53.100Z,20.7
2018-07-04T10:37:52.435Z,20.3
2018-07-04T10:38:52.113Z,20.7
2018-07-04T10:39:51.958Z,20.7
2018-07-04T10:40:51.293Z,20.7
2018-07-04T10:41:50.731Z,20.9
2018-07-04T10:42:50.568Z,21.8
2018-07-04T10:43:49.899Z,21.5
2018-07-04T10:44:49.881Z,22.5
2018-07-04T10:45:49.245Z,22.3
2018-07-04T10:46:48.571Z,21.9
2018-07-04T10:47:48.532Z,21.3
2018-07-04T10:48:47.860Z,22.4
2018-07-04T10:49:47.600Z,22.9
2018-07-04T10:50:47.434Z,20.5
2018-07-04T10:51:46.760Z,20.5
2018-07-04T10:52:46.482Z,21.4
2018-07-04T10:53:17.235Z,21.4
2018-07-04T10:53:47.668Z,21.7
2018-07-04T10:54:18.210Z,21.7
2018-07-04T10:55:45.120Z,20.3
2018-07-04T10:56:44.842Z,20.4
2018-07-04T10:57:44.276Z,21.7
2018-07-04T10:58:43.720Z,20.4
2018-07-04T10:59:43.662Z,20.4
2018-07-04T11:00:43.104Z,20.6
2018-07-04T11:01:42.432Z,20.6
2018-07-04T11:02:42.168Z,19.3
2018-07-04T11:03:42.009Z,19.8
2018-07-04T11:04:12.662Z,19.8
2018-07-04T11:04:42.990Z,20.6
2018-07-04T11:05:13.524Z,20.6
2018-07-04T11:05:44.059Z,20.8
2018-07-04T11:06:40.981Z,21.3
2018-07-04T11:07:40.490Z,20.9
2018-07-04T11:08:39.790Z,20
2018-07-04T11:10:39.305Z,22.3
2018-07-04T11:11:38.933Z,20.6
2018-07-04T11:12:38.367Z,20
2018-07-04T11:13:38.214Z,19.8
2018-07-04T11:14:37.653Z,18.9
2018-07-04T11:15:37.085Z,18.6
2018-07-04T11:16:36.921Z,18.6
2018-07-04T11:17:36.365Z,19.2
2018-07-04T11:18:36.249Z,19.6
2018-07-04T11:19:35.868Z,18.8
2018-07-04T11:20:35.198Z,18.1
2018-07-04T11:21:34.820Z,18.5
2018-07-04T11:22:34.723Z,19
2018-07-04T11:23:34.158Z,19.8
2018-07-04T11:25:33.274Z,19.7
2018-07-04T11:26:33.001Z,19.5
2018-07-04T11:27:32.736Z,19.7
2018-07-04T11:28:32.654Z,19.7
2018-07-04T11:30:31.688Z,18.2
2018-07-04T11:31:31.406Z,18
2018-07-04T11:32:31.234Z,19.3
2018-07-04T11:33:30.670Z,19
2018-07-04T11:34:30.399Z,18.7
2018-07-04T11:35:30.121Z,19.3
2018-07-04T11:36:29.739Z,18.2
2018-07-04T11:37:28.971Z,19.4
2018-07-04T11:38:29.275Z,20.4
2018-07-04T11:40:28.168Z,19.2
2018-07-04T11:41:27.782Z,18.6
2018-07-04T11:42:27.714Z,18.2
2018-07-04T11:43:27.151Z,18.8
2018-07-04T11:44:27.086Z,19.1
2018-07-04T11:45:26.527Z,17.6
2018-07-04T11:46:26.368Z,18.2
2018-07-04T11:47:25.988Z,18.3
2018-07-04T11:48:25.717Z,18.9
2018-07-04T11:49:25.158Z,17.1
2018-07-04T11:50:25.137Z,18.1
2018-07-04T11:51:24.750Z,19
2018-07-04T11:52:24.630Z,18.6
2018-07-04T11:53:24.064Z,17.4
2018-07-04T11:54:23.397Z,18.5
2018-07-04T11:55:23.634Z,19.7
2018-07-04T11:56:23.115Z,16.9
2018-07-04T11:57:22.785Z,18
2018-07-04T11:58:22.513Z,17.2
2018-07-04T11:59:22.336Z,17.3
2018-07-04T12:00:22.059Z,17.2
2018-07-04T12:01:21.382Z,17.6
2018-07-04T12:02:21.336Z,16.9
2018-07-04T12:03:20.770Z,16.5
2018-07-04T12:04:20.728Z,17.2
2018-07-04T12:05:20.641Z,20.7
2018-07-04T12:06:20.074Z,18.8
2018-07-04T12:07:19.798Z,16.9
2018-07-04T12:08:19.637Z,17.7
2018-07-04T12:09:19.472Z,16.4
2018-07-04T12:09:49.724Z,16.4
2018-07-04T12:10:19.976Z,18
2018-07-04T12:10:50.268Z,18
2018-07-04T12:11:20.590Z,15.9
2018-07-04T12:12:18.410Z,14.9
2018-07-04T12:13:18.130Z,16.6
2018-07-04T12:14:17.960Z,14.9
2018-07-04T12:15:17.687Z,16.1
2018-07-04T12:16:17.517Z,16.4
2018-07-04T12:17:16.847Z,16.8
2018-07-04T12:18:16.682Z,17.4
2018-07-04T12:19:16.296Z,17.1
2018-07-04T12:20:16.235Z,15.6
2018-07-04T12:20:46.470Z,15.6
2018-07-04T12:21:16.848Z,16.9
2018-07-04T12:21:47.267Z,16.9
2018-07-04T12:22:17.908Z,16
2018-07-04T12:22:48.159Z,16
2018-07-04T12:23:18.412Z,15.9
2018-07-04T12:23:49.054Z,15.9
2018-07-04T12:24:19.589Z,15.5
2018-07-04T12:25:14.784Z,14.8
2018-07-04T12:26:14.796Z,16.4
2018-07-04T12:27:14.624Z,18.7
2018-07-04T12:28:14.349Z,15.6
2018-07-04T12:29:13.789Z,14.6
2018-07-04T12:30:13.626Z,16.3
2018-07-04T12:31:13.469Z,16.4
2018-07-04T12:32:13.413Z,18.2
2018-07-04T12:33:12.848Z,18.1
2018-07-04T12:33:43.488Z,18.1
2018-07-04T12:34:14.125Z,15.5
2018-07-04T12:36:12.150Z,16.4
2018-07-04T12:37:11.875Z,16.3
2018-07-04T12:38:11.712Z,15.1
2018-07-04T12:39:11.549Z,14.9
2018-07-04T12:40:11.385Z,14.5
2018-07-04T12:41:11.211Z,14.6
2018-07-04T12:42:10.651Z,15.8
2018-07-04T12:43:10.488Z,14.5
2018-07-04T12:44:10.224Z,14.8
2018-07-04T12:45:10.065Z,14.7
2018-07-04T12:46:09.795Z,14.8
2018-07-04T12:47:09.953Z,14.6
2018-07-04T12:48:09.407Z,15.7
2018-07-04T12:49:09.349Z,15.1
2018-07-04T12:50:08.974Z,15
2018-07-04T12:51:08.994Z,15.1
2018-07-04T12:52:08.421Z,16